sensor_id;sensor_type;location;lat;lon;timestamp;pressure;altitude;pressure_sealevel;temperature;humidity
79527;BME280;68974;47.754;-3.364;2023-08-20T00:02:02;102088.03;;;18.57;84.92
79527;BME280;68974;47.754;-3.364;2023-08-20T00:04:30;102080.84;;;18.56;85.17
79527;BME280;68974;47.754;-3.364;2023-08-20T00:06:56;102082.47;;;18.57;85.07
79527;BME280;68974;47.754;-3.364;2023-08-20T00:09:22;102077.44;;;18.59;85.19
79527;BME280;68974;47.754;-3.364;2023-08-20T00:11:48;102083.31;;;18.57;84.84
79527;BME280;68974;47.754;-3.364;2023-08-20T00:14:15;102083.31;;;18.57;85.10
79527;BME280;68974;47.754;-3.364;2023-08-20T00:16:42;102084.75;;;18.55;85.14
79527;BME280;68974;47.754;-3.364;2023-08-20T00:19:08;102090.38;;;18.50;85.10
79527;BME280;68974;47.754;-3.364;2023-08-20T00:21:33;102080.97;;;18.46;85.29
79527;BME280;68974;47.754;-3.364;2023-08-20T00:23:59;102082.00;;;18.50;85.19
79527;BME280;68974;47.754;-3.364;2023-08-20T00:26:25;102086.75;;;18.49;85.06
79527;BME280;68974;47.754;-3.364;2023-08-20T00:28:50;102080.97;;;18.46;85.41
79527;BME280;68974;47.754;-3.364;2023-08-20T00:31:16;102074.34;;;18.42;85.20
79527;BME280;68974;47.754;-3.364;2023-08-20T00:33:41;102084.66;;;18.41;85.76
79527;BME280;68974;47.754;-3.364;2023-08-20T00:36:06;102081.34;;;18.39;85.92
79527;BME280;68974;47.754;-3.364;2023-08-20T00:38:32;102084.41;;;18.38;85.62
79527;BME280;68974;47.754;-3.364;2023-08-20T00:40:57;102088.34;;;18.37;84.70
79527;BME280;68974;47.754;-3.364;2023-08-20T00:43:23;102093.97;;;18.32;84.02
79527;BME280;68974;47.754;-3.364;2023-08-20T00:45:48;102090.13;;;18.28;84.08
79527;BME280;68974;47.754;-3.364;2023-08-20T00:48:14;102080.50;;;18.20;83.81
79527;BME280;68974;47.754;-3.364;2023-08-20T00:50:40;102091.09;;;18.18;83.66
79527;BME280;68974;47.754;-3.364;2023-08-20T00:53:06;102087.59;;;18.12;83.26
79527;BME280;68974;47.754;-3.364;2023-08-20T00:55:33;102091.47;;;18.11;83.01
79527;BME280;68974;47.754;-3.364;2023-08-20T00:57:58;102094.03;;;18.08;83.03
79527;BME280;68974;47.754;-3.364;2023-08-20T01:00:24;102093.44;;;18.11;83.03
79527;BME280;68974;47.754;-3.364;2023-08-20T01:02:49;102085.31;;;18.14;82.71
79527;BME280;68974;47.754;-3.364;2023-08-20T01:05:15;102089.00;;;18.10;82.63
79527;BME280;68974;47.754;-3.364;2023-08-20T01:10:39;102085.94;;;18.11;82.77
79527;BME280;68974;47.754;-3.364;2023-08-20T01:13:05;102086.28;;;18.05;83.03
79527;BME280;68974;47.754;-3.364;2023-08-20T01:15:31;102084.41;;;18.00;82.99
79527;BME280;68974;47.754;-3.364;2023-08-20T01:17:56;102087.78;;;17.97;83.19
79527;BME280;68974;47.754;-3.364;2023-08-20T01:20:27;102087.47;;;17.99;83.17
79527;BME280;68974;47.754;-3.364;2023-08-20T01:30:46;102081.81;;;17.85;83.28
79527;BME280;68974;47.754;-3.364;2023-08-20T01:33:12;102085.06;;;17.92;82.73
79527;BME280;68974;47.754;-3.364;2023-08-20T01:35:38;102087.31;;;17.90;83.11
79527;BME280;68974;47.754;-3.364;2023-08-20T01:38:04;102091.97;;;17.95;82.58
79527;BME280;68974;47.754;-3.364;2023-08-20T01:40:30;102096.13;;;17.97;82.15
79527;BME280;68974;47.754;-3.364;2023-08-20T01:42:56;102096.19;;;17.92;82.50
79527;BME280;68974;47.754;-3.364;2023-08-20T01:45:22;102092.94;;;17.85;82.68
79527;BME280;68974;47.754;-3.364;2023-08-20T01:47:47;102097.50;;;17.76;82.60
79527;BME280;68974;47.754;-3.364;2023-08-20T01:50:12;102105.28;;;17.74;82.09
79527;BME280;68974;47.754;-3.364;2023-08-20T01:52:38;102102.88;;;17.67;82.59
79527;BME280;68974;47.754;-3.364;2023-08-20T01:55:04;102092.19;;;17.51;82.13
79527;BME280;68974;47.754;-3.364;2023-08-20T01:57:29;102093.47;;;17.40;82.82
79527;BME280;68974;47.754;-3.364;2023-08-20T01:59:55;102088.19;;;17.38;83.43
79527;BME280;68974;47.754;-3.364;2023-08-20T02:02:21;102100.69;;;17.36;83.54
79527;BME280;68974;47.754;-3.364;2023-08-20T02:04:46;102099.63;;;17.31;83.31
79527;BME280;68974;47.754;-3.364;2023-08-20T02:07:12;102097.09;;;17.35;83.27
79527;BME280;68974;47.754;-3.364;2023-08-20T02:09:37;102099.06;;;17.35;83.06
79527;BME280;68974;47.754;-3.364;2023-08-20T02:12:03;102097.91;;;17.36;83.20
79527;BME280;68974;47.754;-3.364;2023-08-20T02:14:28;102090.19;;;17.32;82.91
79527;BME280;68974;47.754;-3.364;2023-08-20T02:16:54;102096.84;;;17.31;82.69
79527;BME280;68974;47.754;-3.364;2023-08-20T02:19:19;102103.84;;;17.29;83.15
79527;BME280;68974;47.754;-3.364;2023-08-20T02:21:45;102098.06;;;17.20;82.91
79527;BME280;68974;47.754;-3.364;2023-08-20T02:24:10;102101.44;;;17.17;82.98
79527;BME280;68974;47.754;-3.364;2023-08-20T02:26:36;102100.38;;;17.13;83.07
79527;BME280;68974;47.754;-3.364;2023-08-20T02:29:01;102096.78;;;17.13;83.17
79527;BME280;68974;47.754;-3.364;2023-08-20T02:31:28;102090.16;;;17.09;83.09
79527;BME280;68974;47.754;-3.364;2023-08-20T02:33:53;102094.91;;;17.03;83.07
79527;BME280;68974;47.754;-3.364;2023-08-20T02:36:18;102101.59;;;17.02;83.25
79527;BME280;68974;47.754;-3.364;2023-08-20T02:38:45;102096.03;;;17.02;83.44
79527;BME280;68974;47.754;-3.364;2023-08-20T02:41:10;102096.63;;;16.99;83.16
79527;BME280;68974;47.754;-3.364;2023-08-20T02:43:37;102100.75;;;17.02;82.78
79527;BME280;68974;47.754;-3.364;2023-08-20T02:46:02;102102.19;;;16.99;83.01
79527;BME280;68974;47.754;-3.364;2023-08-20T02:48:29;102111.63;;;16.98;82.86
79527;BME280;68974;47.754;-3.364;2023-08-20T02:50:55;102110.53;;;16.94;83.41
79527;BME280;68974;47.754;-3.364;2023-08-20T02:53:21;102108.59;;;16.95;83.48
79527;BME280;68974;47.754;-3.364;2023-08-20T02:55:46;102108.28;;;16.96;83.86
79527;BME280;68974;47.754;-3.364;2023-08-20T02:58:11;102106.09;;;16.93;83.62
79527;BME280;68974;47.754;-3.364;2023-08-20T03:00:37;102111.91;;;16.97;83.90
79527;BME280;68974;47.754;-3.364;2023-08-20T03:03:03;102110.78;;;16.98;83.87
79527;BME280;68974;47.754;-3.364;2023-08-20T03:05:34;102108.84;;;16.98;83.76
79527;BME280;68974;47.754;-3.364;2023-08-20T03:08:00;102110.25;;;16.96;84.06
79527;BME280;68974;47.754;-3.364;2023-08-20T03:10:30;102109.66;;;16.99;84.62
79527;BME280;68974;47.754;-3.364;2023-08-20T03:12:56;102102.41;;;17.03;84.65
79527;BME280;68974;47.754;-3.364;2023-08-20T03:15:21;102105.19;;;17.03;84.72
79527;BME280;68974;47.754;-3.364;2023-08-20T03:17:47;102101.03;;;17.05;84.98
79527;BME280;68974;47.754;-3.364;2023-08-20T03:20:12;102099.91;;;17.01;84.80
79527;BME280;68974;47.754;-3.364;2023-08-20T03:22:38;102095.78;;;16.99;85.29
79527;BME280;68974;47.754;-3.364;2023-08-20T03:25:04;102109.97;;;16.97;85.25
79527;BME280;68974;47.754;-3.364;2023-08-20T03:27:29;102105.00;;;16.94;85.33
79527;BME280;68974;47.754;-3.364;2023-08-20T03:29:55;102113.03;;;16.96;85.81
79527;BME280;68974;47.754;-3.364;2023-08-20T03:32:21;102113.84;;;16.96;85.92
79527;BME280;68974;47.754;-3.364;2023-08-20T03:34:46;102119.47;;;16.86;86.01
79527;BME280;68974;47.754;-3.364;2023-08-20T03:37:12;102114.50;;;16.83;86.62
79527;BME280;68974;47.754;-3.364;2023-08-20T03:39:37;102105.59;;;16.86;86.64
79527;BME280;68974;47.754;-3.364;2023-08-20T03:42:03;102112.53;;;16.88;86.67
79527;BME280;68974;47.754;-3.364;2023-08-20T03:44:28;102106.66;;;16.95;86.67
79527;BME280;68974;47.754;-3.364;2023-08-20T03:46:55;102116.66;;;16.91;86.36
79527;BME280;68974;47.754;-3.364;2023-08-20T03:49:20;102115.03;;;16.90;86.70
79527;BME280;68974;47.754;-3.364;2023-08-20T03:51:46;102115.59;;;16.87;86.28
79527;BME280;68974;47.754;-3.364;2023-08-20T03:54:11;102111.75;;;16.83;86.40
79527;BME280;68974;47.754;-3.364;2023-08-20T03:56:37;102112.28;;;16.85;85.59
79527;BME280;68974;47.754;-3.364;2023-08-20T03:59:02;102119.59;;;16.76;86.18
79527;BME280;68974;47.754;-3.364;2023-08-20T04:01:28;102120.16;;;16.73;86.83
79527;BME280;68974;47.754;-3.364;2023-08-20T04:03:53;102117.41;;;16.68;86.73
79527;BME280;68974;47.754;-3.364;2023-08-20T04:06:18;102120.50;;;16.66;87.22
79527;BME280;68974;47.754;-3.364;2023-08-20T04:08:44;102123.50;;;16.70;86.95
79527;BME280;68974;47.754;-3.364;2023-08-20T04:11:09;102126.53;;;16.73;87.28
79527;BME280;68974;47.754;-3.364;2023-08-20T04:13:35;102118.16;;;16.78;87.07
79527;BME280;68974;47.754;-3.364;2023-08-20T04:16:00;102120.06;;;16.83;86.68
79527;BME280;68974;47.754;-3.364;2023-08-20T04:18:25;102124.53;;;16.79;86.21
79527;BME280;68974;47.754;-3.364;2023-08-20T04:20:51;102118.38;;;16.87;86.14
79527;BME280;68974;47.754;-3.364;2023-08-20T04:23:18;102120.03;;;16.88;86.03
79527;BME280;68974;47.754;-3.364;2023-08-20T04:25:44;102126.75;;;16.77;85.59
79527;BME280;68974;47.754;-3.364;2023-08-20T04:28:10;102128.44;;;16.78;86.11
79527;BME280;68974;47.754;-3.364;2023-08-20T04:30:36;102124.00;;;16.77;86.35
79527;BME280;68974;47.754;-3.364;2023-08-20T04:33:02;102130.09;;;16.79;86.26
79527;BME280;68974;47.754;-3.364;2023-08-20T04:35:27;102131.16;;;16.83;86.28
79527;BME280;68974;47.754;-3.364;2023-08-20T04:37:53;102134.50;;;16.85;86.46
79527;BME280;68974;47.754;-3.364;2023-08-20T04:40:18;102136.69;;;16.88;85.86
79527;BME280;68974;47.754;-3.364;2023-08-20T04:42:44;102146.16;;;16.82;86.01
79527;BME280;68974;47.754;-3.364;2023-08-20T04:45:10;102133.91;;;16.88;85.29
79527;BME280;68974;47.754;-3.364;2023-08-20T04:47:36;102136.78;;;16.73;85.64
79527;BME280;68974;47.754;-3.364;2023-08-20T04:50:02;102126.28;;;16.70;86.51
79527;BME280;68974;47.754;-3.364;2023-08-20T04:52:27;102120.16;;;16.73;86.76
79527;BME280;68974;47.754;-3.364;2023-08-20T04:54:53;102131.78;;;16.75;86.28
79527;BME280;68974;47.754;-3.364;2023-08-20T04:57:18;102130.72;;;16.71;85.73
79527;BME280;68974;47.754;-3.364;2023-08-20T04:59:44;102135.78;;;16.54;85.48
79527;BME280;68974;47.754;-3.364;2023-08-20T05:02:13;102137.44;;;16.60;86.63
79527;BME280;68974;47.754;-3.364;2023-08-20T05:04:39;102145.53;;;16.51;86.48
79527;BME280;68974;47.754;-3.364;2023-08-20T05:07:05;102139.41;;;16.49;87.14
79527;BME280;68974;47.754;-3.364;2023-08-20T05:09:30;102142.72;;;16.56;86.89
79527;BME280;68974;47.754;-3.364;2023-08-20T05:11:55;102135.25;;;16.52;86.78
79527;BME280;68974;47.754;-3.364;2023-08-20T05:14:21;102138.06;;;16.46;86.77
79527;BME280;68974;47.754;-3.364;2023-08-20T05:16:46;102142.16;;;16.54;86.88
79527;BME280;68974;47.754;-3.364;2023-08-20T05:19:12;102143.28;;;16.53;86.95
79527;BME280;68974;47.754;-3.364;2023-08-20T05:21:37;102151.31;;;16.55;87.47
79527;BME280;68974;47.754;-3.364;2023-08-20T05:24:03;102153.13;;;16.79;86.36
79527;BME280;68974;47.754;-3.364;2023-08-20T05:26:28;102147.84;;;16.78;85.78
79527;BME280;68974;47.754;-3.364;2023-08-20T05:28:54;102152.28;;;16.79;85.89
79527;BME280;68974;47.754;-3.364;2023-08-20T05:31:19;102152.69;;;16.62;86.12
79527;BME280;68974;47.754;-3.364;2023-08-20T05:33:45;102165.47;;;16.53;87.07
79527;BME280;68974;47.754;-3.364;2023-08-20T05:36:10;102167.41;;;16.53;87.63
79527;BME280;68974;47.754;-3.364;2023-08-20T05:38:35;102168.56;;;16.52;87.65
79527;BME280;68974;47.754;-3.364;2023-08-20T05:41:01;102172.66;;;16.64;87.17
79527;BME280;68974;47.754;-3.364;2023-08-20T05:43:26;102175.97;;;16.66;87.25
79527;BME280;68974;47.754;-3.364;2023-08-20T05:45:52;102177.63;;;16.67;86.98
79527;BME280;68974;47.754;-3.364;2023-08-20T05:48:17;102170.31;;;16.81;85.80
79527;BME280;68974;47.754;-3.364;2023-08-20T05:50:42;102181.47;;;16.71;85.59
79527;BME280;68974;47.754;-3.364;2023-08-20T05:53:08;102177.88;;;16.71;85.97
79527;BME280;68974;47.754;-3.364;2023-08-20T05:55:33;102179.53;;;16.72;86.02
79527;BME280;68974;47.754;-3.364;2023-08-20T05:57:59;102177.75;;;16.86;85.73
79527;BME280;68974;47.754;-3.364;2023-08-20T06:00:24;102184.41;;;16.90;85.45
79527;BME280;68974;47.754;-3.364;2023-08-20T06:02:50;102181.69;;;16.85;85.33
79527;BME280;68974;47.754;-3.364;2023-08-20T06:05:15;102182.22;;;16.82;85.54
79527;BME280;68974;47.754;-3.364;2023-08-20T06:07:41;102190.31;;;16.78;85.33
79527;BME280;68974;47.754;-3.364;2023-08-20T06:10:07;102196.09;;;16.82;85.61
79527;BME280;68974;47.754;-3.364;2023-08-20T06:12:33;102195.25;;;16.86;86.00
79527;BME280;68974;47.754;-3.364;2023-08-20T06:14:59;102193.28;;;16.87;85.93
79527;BME280;68974;47.754;-3.364;2023-08-20T06:17:24;102192.22;;;16.83;85.18
79527;BME280;68974;47.754;-3.364;2023-08-20T06:19:49;102206.94;;;16.83;85.09
79527;BME280;68974;47.754;-3.364;2023-08-20T06:22:15;102206.09;;;16.83;85.08
79527;BME280;68974;47.754;-3.364;2023-08-20T06:24:40;102203.63;;;16.76;85.75
79527;BME280;68974;47.754;-3.364;2023-08-20T06:27:06;102207.84;;;16.69;85.64
79527;BME280;68974;47.754;-3.364;2023-08-20T06:29:31;102202.84;;;16.76;86.29
79527;BME280;68974;47.754;-3.364;2023-08-20T06:31:57;102198.38;;;16.80;86.14
79527;BME280;68974;47.754;-3.364;2023-08-20T06:34:22;102203.00;;;16.89;85.78
79527;BME280;68974;47.754;-3.364;2023-08-20T06:36:49;102208.53;;;16.95;84.84
79527;BME280;68974;47.754;-3.364;2023-08-20T06:39:14;102214.88;;;17.00;84.84
79527;BME280;68974;47.754;-3.364;2023-08-20T06:41:41;102219.00;;;17.03;85.00
79527;BME280;68974;47.754;-3.364;2023-08-20T06:44:06;102221.75;;;17.08;84.73
79527;BME280;68974;47.754;-3.364;2023-08-20T06:46:32;102216.38;;;17.21;83.81
79527;BME280;68974;47.754;-3.364;2023-08-20T06:48:57;102215.53;;;17.21;83.99
79527;BME280;68974;47.754;-3.364;2023-08-20T06:51:23;102215.22;;;17.27;82.83
79527;BME280;68974;47.754;-3.364;2023-08-20T06:53:49;102223.56;;;17.22;83.08
79527;BME280;68974;47.754;-3.364;2023-08-20T06:56:14;102231.31;;;17.25;83.48
79527;BME280;68974;47.754;-3.364;2023-08-20T06:58:41;102232.13;;;17.31;84.05
79527;BME280;68974;47.754;-3.364;2023-08-20T07:01:07;102228.47;;;17.36;83.80
79527;BME280;68974;47.754;-3.364;2023-08-20T07:03:38;102221.16;;;17.45;83.97
79527;BME280;68974;47.754;-3.364;2023-08-20T07:06:04;102223.66;;;17.46;83.47
79527;BME280;68974;47.754;-3.364;2023-08-20T07:08:29;102230.75;;;17.62;83.36
79527;BME280;68974;47.754;-3.364;2023-08-20T07:10:55;102229.13;;;17.56;82.88
79527;BME280;68974;47.754;-3.364;2023-08-20T07:13:21;102231.06;;;17.61;83.00
79527;BME280;68974;47.754;-3.364;2023-08-20T07:15:46;102237.59;;;17.75;83.33
79527;BME280;68974;47.754;-3.364;2023-08-20T07:18:12;102241.38;;;17.84;82.67
79527;BME280;68974;47.754;-3.364;2023-08-20T07:20:41;102237.97;;;17.92;82.31
79527;BME280;68974;47.754;-3.364;2023-08-20T07:23:07;102239.09;;;17.91;82.03
79527;BME280;68974;47.754;-3.364;2023-08-20T07:25:32;102242.59;;;18.02;81.65
79527;BME280;68974;47.754;-3.364;2023-08-20T07:27:58;102246.09;;;18.12;82.21
79527;BME280;68974;47.754;-3.364;2023-08-20T07:30:27;102242.59;;;18.26;82.00
79527;BME280;68974;47.754;-3.364;2023-08-20T07:32:52;102243.03;;;18.33;80.72
79527;BME280;68974;47.754;-3.364;2023-08-20T07:35:18;102246.28;;;18.21;80.75
79527;BME280;68974;47.754;-3.364;2023-08-20T07:37:43;102259.16;;;18.36;80.92
79527;BME280;68974;47.754;-3.364;2023-08-20T07:40:09;102259.03;;;18.46;80.10
79527;BME280;68974;47.754;-3.364;2023-08-20T07:42:36;102268.09;;;18.33;80.96
79527;BME280;68974;47.754;-3.364;2023-08-20T07:45:01;102269.69;;;18.39;80.15
79527;BME280;68974;47.754;-3.364;2023-08-20T07:47:27;102263.91;;;18.59;80.25
79527;BME280;68974;47.754;-3.364;2023-08-20T07:49:54;102264.97;;;18.63;79.83
79527;BME280;68974;47.754;-3.364;2023-08-20T07:52:20;102270.69;;;18.72;79.98
79527;BME280;68974;47.754;-3.364;2023-08-20T07:54:45;102270.25;;;18.83;80.16
79527;BME280;68974;47.754;-3.364;2023-08-20T07:57:11;102263.84;;;19.01;79.58
79527;BME280;68974;47.754;-3.364;2023-08-20T07:59:37;102262.22;;;19.19;78.95
79527;BME280;68974;47.754;-3.364;2023-08-20T08:02:03;102261.16;;;19.34;77.88
79527;BME280;68974;47.754;-3.364;2023-08-20T08:04:28;102265.13;;;19.46;77.27
79527;BME280;68974;47.754;-3.364;2023-08-20T08:06:54;102265.25;;;19.55;76.60
79527;BME280;68974;47.754;-3.364;2023-08-20T08:09:30;102262.22;;;19.70;75.81
79527;BME280;68974;47.754;-3.364;2023-08-20T08:11:57;102268.47;;;19.95;75.47
79527;BME280;68974;47.754;-3.364;2023-08-20T08:14:23;102269.09;;;20.05;74.79
79527;BME280;68974;47.754;-3.364;2023-08-20T08:16:48;102262.59;;;20.10;74.81
79527;BME280;68974;47.754;-3.364;2023-08-20T08:19:14;102275.22;;;20.21;74.88
79527;BME280;68974;47.754;-3.364;2023-08-20T08:21:41;102274.75;;;20.46;73.79
79527;BME280;68974;47.754;-3.364;2023-08-20T08:24:06;102266.06;;;20.61;73.08
79527;BME280;68974;47.754;-3.364;2023-08-20T08:26:33;102281.34;;;20.50;73.77
79527;BME280;68974;47.754;-3.364;2023-08-20T08:28:59;102282.59;;;20.71;73.08
79527;BME280;68974;47.754;-3.364;2023-08-20T08:31:24;102280.47;;;20.91;72.54
79527;BME280;68974;47.754;-3.364;2023-08-20T08:33:50;102267.13;;;21.59;70.94
79527;BME280;68974;47.754;-3.364;2023-08-20T08:36:15;102269.81;;;22.35;67.39
79527;BME280;68974;47.754;-3.364;2023-08-20T08:38:42;102268.50;;;22.89;64.71
79527;BME280;68974;47.754;-3.364;2023-08-20T08:41:10;102269.28;;;22.24;66.09
79527;BME280;68974;47.754;-3.364;2023-08-20T08:43:37;102269.94;;;22.69;65.46
79527;BME280;68974;47.754;-3.364;2023-08-20T08:46:11;102277.81;;;23.50;62.98
79527;BME280;68974;47.754;-3.364;2023-08-20T08:48:40;102285.53;;;23.44;61.15
79527;BME280;68974;47.754;-3.364;2023-08-20T08:51:05;102283.28;;;24.01;60.79
79527;BME280;68974;47.754;-3.364;2023-08-20T08:53:32;102285.69;;;24.67;58.58
79527;BME280;68974;47.754;-3.364;2023-08-20T08:55:58;102286.25;;;25.31;55.77
79527;BME280;68974;47.754;-3.364;2023-08-20T08:58:23;102277.56;;;26.22;53.37
79527;BME280;68974;47.754;-3.364;2023-08-20T09:00:49;102291.78;;;26.62;52.62
79527;BME280;68974;47.754;-3.364;2023-08-20T09:03:14;102282.81;;;26.85;52.05
79527;BME280;68974;47.754;-3.364;2023-08-20T09:05:50;102280.03;;;27.25;51.00
79527;BME280;68974;47.754;-3.364;2023-08-20T09:08:23;102282.84;;;26.48;52.91
79527;BME280;68974;47.754;-3.364;2023-08-20T09:10:52;102284.81;;;25.78;52.97
79527;BME280;68974;47.754;-3.364;2023-08-20T09:13:18;102293.34;;;25.08;55.59
79527;BME280;68974;47.754;-3.364;2023-08-20T09:15:52;102296.81;;;24.54;56.73
79527;BME280;68974;47.754;-3.364;2023-08-20T09:18:18;102291.41;;;23.94;58.94
79527;BME280;68974;47.754;-3.364;2023-08-20T09:20:43;102290.47;;;23.30;59.41
79527;BME280;68974;47.754;-3.364;2023-08-20T09:23:12;102290.59;;;24.40;56.06
79527;BME280;68974;47.754;-3.364;2023-08-20T09:25:38;102284.47;;;25.06;55.35
79527;BME280;68974;47.754;-3.364;2023-08-20T09:28:04;102280.81;;;25.05;54.81
79527;BME280;68974;47.754;-3.364;2023-08-20T09:30:29;102286.72;;;25.33;54.83
79527;BME280;68974;47.754;-3.364;2023-08-20T09:33:06;102283.91;;;26.44;51.61
79527;BME280;68974;47.754;-3.364;2023-08-20T09:35:32;102283.03;;;27.56;49.44
79527;BME280;68974;47.754;-3.364;2023-08-20T09:38:03;102284.34;;;27.46;49.20
79527;BME280;68974;47.754;-3.364;2023-08-20T09:40:29;102291.13;;;27.57;48.18
79527;BME280;68974;47.754;-3.364;2023-08-20T09:42:56;102292.09;;;27.37;47.54
79527;BME280;68974;47.754;-3.364;2023-08-20T09:45:24;102294.56;;;26.50;50.42
79527;BME280;68974;47.754;-3.364;2023-08-20T09:47:54;102294.25;;;25.62;53.01
79527;BME280;68974;47.754;-3.364;2023-08-20T09:50:21;102300.91;;;24.95;55.19
79527;BME280;68974;47.754;-3.364;2023-08-20T09:52:55;102298.75;;;25.21;54.67
79527;BME280;68974;47.754;-3.364;2023-08-20T09:55:28;102292.59;;;25.94;51.20
79527;BME280;68974;47.754;-3.364;2023-08-20T09:57:55;102292.28;;;27.56;47.75
79527;BME280;68974;47.754;-3.364;2023-08-20T10:00:21;102292.50;;;28.70;44.92
79527;BME280;68974;47.754;-3.364;2023-08-20T10:02:48;102295.38;;;29.05;42.63
79527;BME280;68974;47.754;-3.364;2023-08-20T10:05:14;102295.19;;;29.52;40.67
79527;BME280;68974;47.754;-3.364;2023-08-20T10:07:42;102291.75;;;29.62;40.58
79527;BME280;68974;47.754;-3.364;2023-08-20T10:10:08;102295.16;;;30.09;41.02
79527;BME280;68974;47.754;-3.364;2023-08-20T10:12:37;102285.63;;;30.21;40.27
79527;BME280;68974;47.754;-3.364;2023-08-20T10:15:05;102284.50;;;30.75;39.31
79527;BME280;68974;47.754;-3.364;2023-08-20T10:17:34;102285.91;;;31.44;37.82
79527;BME280;68974;47.754;-3.364;2023-08-20T10:20:02;102290.22;;;31.64;37.15
79527;BME280;68974;47.754;-3.364;2023-08-20T10:22:42;102291.38;;;31.97;36.07
79527;BME280;68974;47.754;-3.364;2023-08-20T10:25:12;102291.72;;;31.55;36.73
79527;BME280;68974;47.754;-3.364;2023-08-20T10:27:46;102296.50;;;29.96;40.02
79527;BME280;68974;47.754;-3.364;2023-08-20T10:30:32;102294.50;;;28.85;42.67
79527;BME280;68974;47.754;-3.364;2023-08-20T10:32:57;102285.28;;;27.38;45.92
79527;BME280;68974;47.754;-3.364;2023-08-20T10:35:47;102292.00;;;26.69;48.63
79527;BME280;68974;47.754;-3.364;2023-08-20T10:38:14;102295.69;;;26.13;51.35
79527;BME280;68974;47.754;-3.364;2023-08-20T10:46:17;102286.41;;;28.68;43.66
79527;BME280;68974;47.754;-3.364;2023-08-20T10:48:46;102299.63;;;27.45;45.39
79527;BME280;68974;47.754;-3.364;2023-08-20T10:51:27;102292.25;;;26.52;47.81
79527;BME280;68974;47.754;-3.364;2023-08-20T10:54:04;102288.25;;;26.78;48.15
79527;BME280;68974;47.754;-3.364;2023-08-20T10:56:45;102287.78;;;28.42;44.98
79527;BME280;68974;47.754;-3.364;2023-08-20T11:01:43;102272.75;;;30.50;37.82
79527;BME280;68974;47.754;-3.364;2023-08-20T11:04:08;102271.81;;;31.21;37.27
79527;BME280;68974;47.754;-3.364;2023-08-20T11:06:34;102269.28;;;31.79;37.29
79527;BME280;68974;47.754;-3.364;2023-08-20T11:09:00;102270.94;;;31.80;34.51
79527;BME280;68974;47.754;-3.364;2023-08-20T11:11:28;102280.69;;;32.20;33.92
79527;BME280;68974;47.754;-3.364;2023-08-20T11:13:54;102271.72;;;32.18;32.56
79527;BME280;68974;47.754;-3.364;2023-08-20T11:16:19;102280.00;;;32.37;32.96
79527;BME280;68974;47.754;-3.364;2023-08-20T11:18:44;102268.28;;;32.42;32.73
79527;BME280;68974;47.754;-3.364;2023-08-20T11:21:11;102269.94;;;32.50;33.04
79527;BME280;68974;47.754;-3.364;2023-08-20T11:23:38;102279.03;;;31.78;31.91
79527;BME280;68974;47.754;-3.364;2023-08-20T11:26:05;102279.31;;;31.66;33.52
79527;BME280;68974;47.754;-3.364;2023-08-20T11:28:30;102274.38;;;32.00;33.00
79527;BME280;68974;47.754;-3.364;2023-08-20T11:30:56;102277.31;;;31.70;32.71
79527;BME280;68974;47.754;-3.364;2023-08-20T11:33:23;102277.06;;;32.23;32.32
79527;BME280;68974;47.754;-3.364;2023-08-20T11:35:49;102277.41;;;31.14;36.11
79527;BME280;68974;47.754;-3.364;2023-08-20T11:38:15;102274.63;;;31.85;35.19
79527;BME280;68974;47.754;-3.364;2023-08-20T11:40:40;102278.22;;;31.81;34.71
79527;BME280;68974;47.754;-3.364;2023-08-20T11:43:05;102275.38;;;31.81;34.16
79527;BME280;68974;47.754;-3.364;2023-08-20T11:45:31;102273.00;;;31.50;34.75
79527;BME280;68974;47.754;-3.364;2023-08-20T11:47:57;102273.41;;;31.19;35.00
79527;BME280;68974;47.754;-3.364;2023-08-20T11:50:23;102272.56;;;30.62;36.32
79527;BME280;68974;47.754;-3.364;2023-08-20T11:52:49;102267.41;;;31.57;34.71
79527;BME280;68974;47.754;-3.364;2023-08-20T11:55:14;102273.78;;;32.21;31.41
79527;BME280;68974;47.754;-3.364;2023-08-20T11:57:40;102264.31;;;32.54;29.66
79527;BME280;68974;47.754;-3.364;2023-08-20T12:00:06;102265.09;;;31.66;30.73
79527;BME280;68974;47.754;-3.364;2023-08-20T12:02:40;102272.00;;;30.79;32.59
79527;BME280;68974;47.754;-3.364;2023-08-20T12:05:07;102271.50;;;31.00;33.29
79527;BME280;68974;47.754;-3.364;2023-08-20T12:07:32;102267.09;;;32.03;32.76
79527;BME280;68974;47.754;-3.364;2023-08-20T12:09:57;102262.56;;;31.95;31.43
79527;BME280;68974;47.754;-3.364;2023-08-20T12:12:23;102268.81;;;32.11;32.62
79527;BME280;68974;47.754;-3.364;2023-08-20T12:14:49;102262.94;;;32.92;30.69
79527;BME280;68974;47.754;-3.364;2023-08-20T12:17:19;102259.75;;;33.04;29.80
79527;BME280;68974;47.754;-3.364;2023-08-20T12:19:45;102258.38;;;33.60;30.35
79527;BME280;68974;47.754;-3.364;2023-08-20T12:22:11;102263.63;;;32.67;30.77
79527;BME280;68974;47.754;-3.364;2023-08-20T12:24:37;102265.19;;;33.27;30.66
79527;BME280;68974;47.754;-3.364;2023-08-20T12:27:02;102266.09;;;33.63;30.83
79527;BME280;68974;47.754;-3.364;2023-08-20T12:29:29;102259.88;;;33.25;31.94
79527;BME280;68974;47.754;-3.364;2023-08-20T12:31:54;102249.50;;;33.82;30.53
79527;BME280;68974;47.754;-3.364;2023-08-20T12:34:19;102258.09;;;34.00;30.25
79527;BME280;68974;47.754;-3.364;2023-08-20T12:36:47;102249.50;;;34.60;29.87
79527;BME280;68974;47.754;-3.364;2023-08-20T12:39:12;102247.44;;;34.86;29.24
79527;BME280;68974;47.754;-3.364;2023-08-20T12:41:38;102248.69;;;34.81;29.72
79527;BME280;68974;47.754;-3.364;2023-08-20T12:44:04;102252.81;;;34.34;28.60
79527;BME280;68974;47.754;-3.364;2023-08-20T12:46:30;102239.75;;;34.58;28.78
79527;BME280;68974;47.754;-3.364;2023-08-20T12:48:55;102245.41;;;34.93;29.83
79527;BME280;68974;47.754;-3.364;2023-08-20T12:51:20;102251.88;;;35.18;30.92
79527;BME280;68974;47.754;-3.364;2023-08-20T12:53:46;102247.06;;;34.80;28.80
79527;BME280;68974;47.754;-3.364;2023-08-20T12:56:11;102248.69;;;33.85;28.49